Terminal Aerodrome Forecast
Issued by NWS

Home | Current Version | Previous Version | Text Only | Print | Product List | Glossary On
Versions: 1 2 3 4 5 6 7 8 9 10 11 12 13
000
FTUS45 KTFX 212340
TAFLWT
TAF
KLWT 212340Z 2200/2224 26011G20KT P6SM FEW070 SCT200
     FM220200 23009KT P6SM SCT090 BKN200
     FM220600 22011G20KT P6SM VCSH SCT070 BKN100 WS020/26035KT
     FM220900 24018G28KT P6SM SCT060 OVC090 WS020/26050KT PROB30
      2209/2212 -SHRA BKN050
     FM221600 27030G42KT P6SM SCT060 BKN090=

USA.gov is the U.S. government's official web portal to all federal, state and local government web resources and services.